createdAt,value
2023-12-11T00:02:31.253Z,8.80
2023-12-11T00:05:17.196Z,9.00
2023-12-11T00:08:02.475Z,8.10
2023-12-11T00:10:48.387Z,8.10
2023-12-11T00:13:33.754Z,8.50
2023-12-11T00:16:19.716Z,8.10
2023-12-11T00:19:05.636Z,8.50
2023-12-11T00:21:51.534Z,8.00
2023-12-11T00:24:37.318Z,7.70
2023-12-11T00:27:22.947Z,8.50
2023-12-11T00:30:10.293Z,9.50
2023-12-11T00:32:55.883Z,7.90
2023-12-11T00:35:41.307Z,10.30
2023-12-11T00:38:26.992Z,8.70
2023-12-11T00:41:13.080Z,9.30
2023-12-11T00:43:58.716Z,8.20
2023-12-11T00:46:44.433Z,7.00
2023-12-11T00:49:30.183Z,8.60
2023-12-11T00:52:15.916Z,8.20
2023-12-11T00:55:01.274Z,8.50
2023-12-11T00:57:46.577Z,8.90
2023-12-11T01:00:32.318Z,8.20
2023-12-11T01:03:18.149Z,9.00
2023-12-11T01:06:03.755Z,8.20
2023-12-11T01:08:49.081Z,8.20
2023-12-11T01:11:34.749Z,8.60
2023-12-11T01:14:20.504Z,9.30
2023-12-11T01:17:36.429Z,8.00
2023-12-11T01:20:12.012Z,8.10
2023-12-11T01:22:57.749Z,8.10
2023-12-11T01:25:43.237Z,8.00
2023-12-11T01:28:28.688Z,8.20
2023-12-11T01:31:14.220Z,8.90
2023-12-11T01:34:00.137Z,9.40
2023-12-11T01:36:46.061Z,9.80
2023-12-11T01:39:31.785Z,8.10
2023-12-11T01:42:18.235Z,8.10
2023-12-11T01:45:04.161Z,9.10
2023-12-11T01:47:49.643Z,8.00
2023-12-11T01:50:35.273Z,8.40
2023-12-11T01:53:20.734Z,9.20
2023-12-11T01:56:06.579Z,9.20
2023-12-11T01:58:52.692Z,8.00
2023-12-11T02:01:38.875Z,9.20
2023-12-11T02:04:25.401Z,7.70
2023-12-11T02:07:11.206Z,7.80
2023-12-11T02:09:56.496Z,8.90
2023-12-11T02:12:43.887Z,7.80
2023-12-11T02:15:46.344Z,9.80
2023-12-11T02:18:32.246Z,9.20
2023-12-11T02:21:18.334Z,9.00
2023-12-11T02:24:11.505Z,9.30
2023-12-11T02:26:57.004Z,8.70
2023-12-11T02:29:42.638Z,7.60
2023-12-11T02:32:28.317Z,8.50
2023-12-11T02:35:13.461Z,7.60
2023-12-11T02:37:59.161Z,7.80
2023-12-11T02:40:44.695Z,9.70
2023-12-11T02:43:30.765Z,7.70
2023-12-11T02:46:16.315Z,7.70
2023-12-11T02:49:01.714Z,9.20
2023-12-11T02:51:47.285Z,8.90
2023-12-11T02:54:32.915Z,9.30
2023-12-11T02:57:18.277Z,7.60
2023-12-11T03:00:04.374Z,7.70
2023-12-11T03:02:49.710Z,7.80
2023-12-11T03:05:35.636Z,8.80
2023-12-11T03:08:20.973Z,8.00
2023-12-11T03:11:06.587Z,8.00
2023-12-11T03:13:52.146Z,8.10
2023-12-11T03:16:37.879Z,8.70
2023-12-11T03:19:23.409Z,9.40
2023-12-11T03:22:09.298Z,8.00
2023-12-11T03:24:55.986Z,8.70
2023-12-11T03:27:41.782Z,7.90
2023-12-11T03:30:27.353Z,8.30
2023-12-11T03:33:13.168Z,8.30
2023-12-11T03:35:58.997Z,8.10
2023-12-11T03:38:44.665Z,8.20
2023-12-11T03:41:30.274Z,8.20
2023-12-11T03:44:15.822Z,8.20
2023-12-11T03:47:01.414Z,8.30
2023-12-11T03:49:47.130Z,9.80
2023-12-11T03:52:32.746Z,8.40
2023-12-11T03:55:18.176Z,8.40
2023-12-11T03:58:03.754Z,9.70
2023-12-11T04:00:49.532Z,8.90
2023-12-11T04:03:35.058Z,8.50
2023-12-11T04:06:20.731Z,9.10
2023-12-11T04:09:06.204Z,8.30
2023-12-11T04:11:51.898Z,8.20
2023-12-11T04:14:37.354Z,8.20
2023-12-11T04:17:23.501Z,8.50
2023-12-11T04:20:09.499Z,8.70
2023-12-11T04:22:55.212Z,8.40
2023-12-11T04:25:40.764Z,8.80
2023-12-11T04:28:27.375Z,8.30
2023-12-11T04:31:13.206Z,8.30
2023-12-11T04:33:58.761Z,9.70
2023-12-11T04:36:47.547Z,8.10
2023-12-11T04:39:32.839Z,8.50
2023-12-11T04:42:18.431Z,8.20
2023-12-11T04:45:04.340Z,10.00
2023-12-11T04:47:49.755Z,7.90
2023-12-11T04:50:35.242Z,9.70
2023-12-11T04:53:20.827Z,8.40
2023-12-11T04:56:07.820Z,8.60
2023-12-11T04:58:53.537Z,7.90
2023-12-11T05:01:39.502Z,8.70
2023-12-11T05:04:25.135Z,7.90
2023-12-11T05:07:10.939Z,8.00
2023-12-11T05:09:56.650Z,8.90
2023-12-11T05:12:42.413Z,8.70
2023-12-11T05:15:28.221Z,9.40
2023-12-11T05:18:13.641Z,8.00
2023-12-11T05:20:59.147Z,8.50
2023-12-11T05:23:44.601Z,8.10
2023-12-11T05:26:29.869Z,8.10
2023-12-11T05:29:15.712Z,10.70
2023-12-11T05:32:01.400Z,8.60
2023-12-11T05:34:47.064Z,9.00
2023-12-11T05:37:32.805Z,8.30
2023-12-11T05:40:22.683Z,8.40
2023-12-11T05:43:09.307Z,9.00
2023-12-11T05:45:54.884Z,9.60
2023-12-11T05:48:40.720Z,8.30
2023-12-11T05:51:28.428Z,9.70
2023-12-11T05:54:14.034Z,9.00
2023-12-11T05:56:59.904Z,9.10
2023-12-11T05:59:46.160Z,8.40
2023-12-11T06:02:31.546Z,8.40
2023-12-11T06:05:17.375Z,8.60
2023-12-11T06:08:03.378Z,9.70
2023-12-11T06:10:48.740Z,9.30
2023-12-11T06:13:34.481Z,9.80
2023-12-11T06:16:21.637Z,8.40
2023-12-11T06:19:07.451Z,9.00
2023-12-11T06:21:53.115Z,8.90
2023-12-11T06:24:42.534Z,9.40
2023-12-11T06:27:29.442Z,9.20
2023-12-11T06:30:16.762Z,9.00
2023-12-11T06:33:02.554Z,8.90
2023-12-11T06:35:48.005Z,10.30
2023-12-11T06:38:33.882Z,9.60
2023-12-11T06:41:19.882Z,9.70
2023-12-11T06:44:05.564Z,8.60
2023-12-11T06:46:51.047Z,9.70
2023-12-11T06:49:38.742Z,8.50
2023-12-11T06:52:24.324Z,8.80
2023-12-11T06:55:09.951Z,8.50
2023-12-11T06:57:55.463Z,8.40
2023-12-11T07:00:41.131Z,8.40
2023-12-11T07:03:27.230Z,8.70
2023-12-11T07:06:12.668Z,8.60
2023-12-11T07:08:58.504Z,8.40
2023-12-11T07:11:44.304Z,8.50
2023-12-11T07:14:29.766Z,8.40
2023-12-11T07:17:15.308Z,8.50
2023-12-11T07:20:01.353Z,8.40
2023-12-11T07:22:47.479Z,9.70
2023-12-11T07:25:33.180Z,8.40
2023-12-11T07:28:19.149Z,8.50
2023-12-11T07:31:07.037Z,8.40
2023-12-11T07:33:55.258Z,8.40
2023-12-11T07:36:41.851Z,9.20
2023-12-11T07:39:27.387Z,8.70
2023-12-11T07:42:14.567Z,8.70
2023-12-11T07:45:00.499Z,9.90
2023-12-11T07:47:46.171Z,9.30
2023-12-11T07:50:31.686Z,9.20
2023-12-11T07:53:17.216Z,8.60
2023-12-11T07:56:02.708Z,8.50
2023-12-11T07:58:48.222Z,8.50
2023-12-11T08:01:33.992Z,10.00
2023-12-11T08:04:19.697Z,9.60
2023-12-11T08:07:05.991Z,8.60
2023-12-11T08:09:51.604Z,8.80
2023-12-11T08:12:37.071Z,10.30
2023-12-11T08:15:22.456Z,8.80
2023-12-11T08:18:07.985Z,10.50
2023-12-11T08:20:53.611Z,9.90
2023-12-11T08:23:41.004Z,10.30
2023-12-11T08:26:26.538Z,9.90
2023-12-11T08:29:12.170Z,8.80
2023-12-11T08:31:57.652Z,8.80
2023-12-11T08:34:43.558Z,9.70
2023-12-11T08:37:29.472Z,10.10
2023-12-11T08:40:17.045Z,9.50
2023-12-11T08:43:02.842Z,8.90
2023-12-11T08:45:48.565Z,8.90
2023-12-11T08:48:34.435Z,9.00
2023-12-11T08:51:20.451Z,10.40
2023-12-11T08:54:06.796Z,9.20
2023-12-11T08:56:52.573Z,9.10
2023-12-11T08:59:39.017Z,9.10
2023-12-11T09:02:24.362Z,8.90
2023-12-11T09:05:10.244Z,9.10
2023-12-11T09:07:56.476Z,9.00
2023-12-11T09:10:42.225Z,10.60
2023-12-11T09:13:29.643Z,9.60
2023-12-11T09:16:15.573Z,9.20
2023-12-11T09:19:01.027Z,9.30
2023-12-11T09:21:46.892Z,10.80
2023-12-11T09:24:32.669Z,9.80
2023-12-11T09:27:18.449Z,10.30
2023-12-11T09:30:04.158Z,9.40
2023-12-11T09:32:49.680Z,9.40
2023-12-11T09:35:35.482Z,9.50
2023-12-11T09:38:21.172Z,9.60
2023-12-11T09:41:08.688Z,9.60
2023-12-11T09:43:55.133Z,9.60
2023-12-11T09:46:51.244Z,9.70
2023-12-11T09:49:37.074Z,10.30
2023-12-11T09:52:26.094Z,10.30
2023-12-11T09:55:11.748Z,11.10
2023-12-11T09:57:58.209Z,10.30
2023-12-11T10:00:44.536Z,10.50
2023-12-11T10:03:30.243Z,10.00
2023-12-11T10:06:17.501Z,9.90
2023-12-11T10:09:05.385Z,10.00
2023-12-11T10:12:01.033Z,10.00
2023-12-11T10:15:02.988Z,10.90
2023-12-11T10:18:02.001Z,11.30
2023-12-11T10:20:55.352Z,10.40
2023-12-11T10:23:41.007Z,10.60
2023-12-11T10:26:26.761Z,10.50
2023-12-11T10:29:23.287Z,10.50
2023-12-11T10:32:10.042Z,10.60
2023-12-11T10:34:55.521Z,10.40
2023-12-11T10:37:43.513Z,10.30
2023-12-11T10:40:40.179Z,10.40
2023-12-11T10:43:25.882Z,10.40
2023-12-11T10:46:11.940Z,10.70
2023-12-11T10:49:00.482Z,12.00
2023-12-11T10:51:46.390Z,11.80
2023-12-11T10:54:32.471Z,10.30
2023-12-11T10:57:18.702Z,10.30
2023-12-11T11:00:06.093Z,10.50
2023-12-11T11:02:55.824Z,10.60
2023-12-11T11:05:42.198Z,10.70
2023-12-11T11:08:38.534Z,12.10
2023-12-11T11:11:30.318Z,10.80
2023-12-11T11:14:19.068Z,11.00
2023-12-11T11:17:04.387Z,11.00
2023-12-11T11:20:23.096Z,11.00
2023-12-11T11:23:15.309Z,10.90
2023-12-11T11:26:01.337Z,13.60
2023-12-11T11:28:51.947Z,11.00
2023-12-11T11:31:52.164Z,11.20
2023-12-11T11:34:40.886Z,12.50
2023-12-11T11:37:49.186Z,13.10
2023-12-11T11:40:37.788Z,11.70
2023-12-11T11:43:24.922Z,11.40
2023-12-11T11:46:10.392Z,11.40
2023-12-11T11:48:56.132Z,13.30
2023-12-11T11:51:41.835Z,11.40
2023-12-11T11:54:30.736Z,11.50
2023-12-11T11:57:16.233Z,11.30
2023-12-11T12:00:01.989Z,11.30
2023-12-11T12:02:47.389Z,11.30
2023-12-11T12:05:33.404Z,12.20
2023-12-11T12:08:19.398Z,11.40
2023-12-11T12:11:05.582Z,11.40
2023-12-11T12:13:51.240Z,11.30
2023-12-11T12:16:36.848Z,11.20
2023-12-11T12:19:33.361Z,11.80
2023-12-11T12:22:19.381Z,11.30
2023-12-11T12:25:14.687Z,11.40
2023-12-11T12:28:06.764Z,11.30
2023-12-11T12:30:52.752Z,11.40
2023-12-11T12:33:38.833Z,11.20
2023-12-11T12:36:24.625Z,11.10
2023-12-11T12:39:12.471Z,11.00
2023-12-11T12:41:58.014Z,11.00
2023-12-11T12:44:43.595Z,11.10
2023-12-11T12:47:29.885Z,11.00
2023-12-11T12:50:21.154Z,10.80
2023-12-11T12:53:17.410Z,10.90
2023-12-11T12:56:14.298Z,11.00
2023-12-11T12:59:03.507Z,10.90
2023-12-11T13:01:49.986Z,10.90
2023-12-11T13:04:49.788Z,11.30
2023-12-11T13:07:36.008Z,11.20
2023-12-11T13:10:21.504Z,11.00
2023-12-11T13:13:16.046Z,11.00
2023-12-11T13:16:01.473Z,11.20
2023-12-11T13:18:51.256Z,11.40
2023-12-11T13:21:37.220Z,11.60
2023-12-11T13:24:25.401Z,11.40
2023-12-11T13:27:11.177Z,11.60
2023-12-11T13:29:56.644Z,11.90
2023-12-11T13:32:42.442Z,11.40
2023-12-11T13:35:27.902Z,11.10
2023-12-11T13:38:13.579Z,11.30
2023-12-11T13:40:59.210Z,11.30
2023-12-11T13:43:44.974Z,11.50
2023-12-11T13:46:31.036Z,11.30
2023-12-11T13:49:16.855Z,11.20
2023-12-11T13:52:02.448Z,11.30
2023-12-11T13:54:48.271Z,11.20
2023-12-11T13:57:35.108Z,11.10
2023-12-11T14:00:20.730Z,12.40
2023-12-11T14:03:06.615Z,11.20
2023-12-11T14:05:53.059Z,11.70
2023-12-11T14:08:38.831Z,11.40
2023-12-11T14:11:24.481Z,11.60
2023-12-11T14:14:10.126Z,11.50
2023-12-11T14:16:55.825Z,12.10
2023-12-11T14:19:41.600Z,11.70
2023-12-11T14:22:26.974Z,11.80
2023-12-11T14:25:13.330Z,11.80
2023-12-11T14:28:06.317Z,11.70
2023-12-11T14:30:54.269Z,11.80
2023-12-11T14:33:40.489Z,11.90
2023-12-11T14:36:27.708Z,11.80
2023-12-11T14:39:13.328Z,11.80
2023-12-11T14:41:58.722Z,11.70
2023-12-11T14:44:44.713Z,11.70
2023-12-11T14:47:30.714Z,11.70
2023-12-11T14:50:16.809Z,11.60
2023-12-11T14:53:02.582Z,11.70
2023-12-11T14:55:48.208Z,11.50
2023-12-11T14:58:36.297Z,11.40
2023-12-11T15:01:22.144Z,12.00
2023-12-11T15:04:07.863Z,11.30
2023-12-11T15:06:54.420Z,11.30
2023-12-11T15:09:40.871Z,11.30
2023-12-11T15:12:26.298Z,11.40
2023-12-11T15:15:12.560Z,11.30
2023-12-11T15:17:58.159Z,11.70
2023-12-11T15:20:44.529Z,11.60
2023-12-11T15:23:30.225Z,11.30
2023-12-11T15:26:20.550Z,11.10
2023-12-11T15:29:08.659Z,11.10
2023-12-11T15:31:54.125Z,11.00
2023-12-11T15:34:42.562Z,11.00
2023-12-11T15:37:28.255Z,11.00
2023-12-11T15:40:14.461Z,10.90
2023-12-11T15:42:59.907Z,10.90
2023-12-11T15:45:45.644Z,10.80
2023-12-11T15:48:31.226Z,10.80
2023-12-11T15:51:19.063Z,10.70
2023-12-11T15:54:04.643Z,10.80
2023-12-11T15:56:50.046Z,10.70
2023-12-11T15:59:35.403Z,10.50
2023-12-11T16:02:20.969Z,10.60
2023-12-11T16:05:06.662Z,10.50
2023-12-11T16:07:52.139Z,10.60
2023-12-11T16:10:37.840Z,10.70
2023-12-11T16:13:23.158Z,10.70
2023-12-11T16:16:17.295Z,11.50
2023-12-11T16:19:02.853Z,10.80
2023-12-11T16:21:48.782Z,10.80
2023-12-11T16:24:34.543Z,10.70
2023-12-11T16:27:20.192Z,10.60
2023-12-11T16:30:06.218Z,10.60
2023-12-11T16:32:51.760Z,10.70
2023-12-11T16:35:37.935Z,10.70
2023-12-11T16:38:23.720Z,10.70
2023-12-11T16:41:10.366Z,10.70
2023-12-11T16:43:56.280Z,11.20
2023-12-11T16:46:45.494Z,10.70
2023-12-11T16:49:32.628Z,10.70
2023-12-11T16:52:19.977Z,10.80
2023-12-11T16:55:07.658Z,10.70
2023-12-11T16:57:53.612Z,10.80
2023-12-11T17:00:39.198Z,10.80
2023-12-11T17:03:24.741Z,10.70
2023-12-11T17:06:22.581Z,10.70
2023-12-11T17:09:08.196Z,10.70
2023-12-11T17:11:53.580Z,10.70
2023-12-11T17:14:39.753Z,10.60
2023-12-11T17:17:25.394Z,10.70
2023-12-11T17:20:11.567Z,10.80
2023-12-11T17:22:56.895Z,10.70
2023-12-11T17:25:42.355Z,10.70
2023-12-11T17:28:27.835Z,10.70
2023-12-11T17:31:15.330Z,10.90
2023-12-11T17:34:00.946Z,10.60
2023-12-11T17:36:46.332Z,10.50
2023-12-11T17:39:31.937Z,10.50
2023-12-11T17:42:17.592Z,10.40
2023-12-11T17:45:03.508Z,10.40
2023-12-11T17:47:49.032Z,10.30
2023-12-11T17:50:36.777Z,10.20
2023-12-11T17:53:22.158Z,10.20
2023-12-11T17:56:12.533Z,10.20
2023-12-11T17:58:58.270Z,10.90
2023-12-11T18:01:44.049Z,10.30
2023-12-11T18:04:29.720Z,10.40
2023-12-11T18:07:15.312Z,10.60
2023-12-11T18:10:00.724Z,10.50
2023-12-11T18:12:46.634Z,10.60
2023-12-11T18:15:32.070Z,10.40
2023-12-11T18:18:17.544Z,10.40
2023-12-11T18:21:03.357Z,10.90
2023-12-11T18:23:48.655Z,10.40
2023-12-11T18:26:34.241Z,10.30
2023-12-11T18:29:22.729Z,10.30
2023-12-11T18:32:10.239Z,10.20
2023-12-11T18:34:56.016Z,10.20
2023-12-11T18:37:41.450Z,10.20
2023-12-11T18:40:29.561Z,10.30
2023-12-11T18:43:15.548Z,10.30
2023-12-11T18:46:00.891Z,10.20
2023-12-11T18:48:46.555Z,10.30
2023-12-11T18:51:33.068Z,10.30
2023-12-11T18:54:18.351Z,10.20
2023-12-11T18:57:04.045Z,10.20
2023-12-11T18:59:49.437Z,10.30
2023-12-11T19:02:35.428Z,10.30
2023-12-11T19:05:21.425Z,10.40
2023-12-11T19:08:06.938Z,10.40
2023-12-11T19:10:52.592Z,10.40
2023-12-11T19:13:38.550Z,10.30
2023-12-11T19:16:24.228Z,11.00
2023-12-11T19:19:09.818Z,11.10
2023-12-11T19:21:55.280Z,10.20
2023-12-11T19:24:40.773Z,10.30
2023-12-11T19:27:27.594Z,12.10
2023-12-11T19:30:13.561Z,10.20
2023-12-11T19:32:59.334Z,10.10
2023-12-11T19:35:44.877Z,10.20
2023-12-11T19:38:30.322Z,10.30
2023-12-11T19:41:16.075Z,10.30
2023-12-11T19:44:01.615Z,10.20
2023-12-11T19:46:47.301Z,10.20
2023-12-11T19:49:32.733Z,10.30
2023-12-11T19:52:18.534Z,10.30
2023-12-11T19:55:04.024Z,10.20
2023-12-11T19:57:49.608Z,10.20
2023-12-11T20:00:34.995Z,10.20
2023-12-11T20:03:20.685Z,10.30
2023-12-11T20:06:06.496Z,10.20
2023-12-11T20:08:52.347Z,10.40
2023-12-11T20:11:37.676Z,10.50
2023-12-11T20:14:23.802Z,10.40
2023-12-11T20:17:09.663Z,10.30
2023-12-11T20:19:57.740Z,10.20
2023-12-11T20:22:45.222Z,10.30
2023-12-11T20:25:30.762Z,10.30
2023-12-11T20:28:16.236Z,10.50
2023-12-11T20:31:01.934Z,10.60
2023-12-11T20:33:47.988Z,10.60
2023-12-11T20:36:34.543Z,10.60
2023-12-11T20:39:19.827Z,10.60
2023-12-11T20:42:05.795Z,10.60
2023-12-11T20:44:54.315Z,10.40
2023-12-11T20:47:39.938Z,10.30
2023-12-11T20:50:25.559Z,10.40
2023-12-11T20:53:11.179Z,10.20
2023-12-11T20:55:56.794Z,10.30
2023-12-11T20:58:42.469Z,10.30
2023-12-11T21:01:33.274Z,10.30
2023-12-11T21:04:19.474Z,10.30
2023-12-11T21:07:04.886Z,10.40
2023-12-11T21:09:50.678Z,10.40
2023-12-11T21:12:36.302Z,10.50
2023-12-11T21:15:23.647Z,10.50
2023-12-11T21:18:14.860Z,10.70
2023-12-11T21:21:00.299Z,10.50
2023-12-11T21:23:46.992Z,10.60
2023-12-11T21:26:33.402Z,10.60
2023-12-11T21:29:19.106Z,10.70
2023-12-11T21:32:05.581Z,10.70
2023-12-11T21:34:51.624Z,10.70
2023-12-11T21:37:37.207Z,10.50
2023-12-11T21:40:22.889Z,10.60
2023-12-11T21:43:08.555Z,11.70
2023-12-11T21:45:54.613Z,10.60
2023-12-11T21:48:40.851Z,10.70
2023-12-11T21:51:27.405Z,10.60
2023-12-11T21:54:13.459Z,10.90
2023-12-11T21:56:59.285Z,10.60
2023-12-11T21:59:48.166Z,10.60
2023-12-11T22:02:34.477Z,10.90
2023-12-11T22:05:20.188Z,10.20
2023-12-11T22:08:05.728Z,10.30
2023-12-11T22:10:51.555Z,11.30
2023-12-11T22:13:36.952Z,10.30
2023-12-11T22:16:22.451Z,10.40
2023-12-11T22:19:12.289Z,10.30
2023-12-11T22:21:57.843Z,10.40
2023-12-11T22:24:43.254Z,10.60
2023-12-11T22:27:28.859Z,10.50
2023-12-11T22:30:15.447Z,10.40
2023-12-11T22:33:01.307Z,10.40
2023-12-11T22:35:46.876Z,10.60
2023-12-11T22:38:32.503Z,10.60
2023-12-11T22:41:28.348Z,11.10
2023-12-11T22:44:13.880Z,10.30
2023-12-11T22:46:59.740Z,10.50
2023-12-11T22:49:45.609Z,10.50
2023-12-11T22:52:31.412Z,10.60
2023-12-11T22:55:17.388Z,10.50
2023-12-11T22:58:13.516Z,10.40
2023-12-11T23:01:02.003Z,10.90
2023-12-11T23:03:48.808Z,10.50
2023-12-11T23:06:35.194Z,10.60
2023-12-11T23:09:20.533Z,10.40
2023-12-11T23:12:07.212Z,10.40
2023-12-11T23:14:52.943Z,10.40
2023-12-11T23:17:38.480Z,11.40
2023-12-11T23:20:24.109Z,10.20
2023-12-11T23:23:09.824Z,10.00
2023-12-11T23:26:01.414Z,10.00
2023-12-11T23:28:51.016Z,10.30
2023-12-11T23:31:36.713Z,10.20
2023-12-11T23:34:22.862Z,10.30
2023-12-11T23:37:08.140Z,10.30
2023-12-11T23:39:53.858Z,10.80
2023-12-11T23:42:39.334Z,10.30
2023-12-11T23:45:24.948Z,10.40
2023-12-11T23:48:10.496Z,10.30
2023-12-11T23:50:56.103Z,10.10
2023-12-11T23:53:43.906Z,10.30
2023-12-11T23:56:29.180Z,10.20
2023-12-11T23:59:14.742Z,10.20
